Miles Pond, Vermont
Current Conditions -  °F | °C
As of 11:55 AM on Wednesday 22 Oct 2014 (Local Time) from KCDA Reporting Station
Overcast Overcast  
Wind Chill: 51°   Ceiling: 2800
Heat Index: 51°   Visibility: 10mi
Dew Point: 44°   Wind: 5mph
Humidity: 76%   Direction: 360°N
Pressure: 30.2"   Gusts: NA
Location:  44.5627°N, 71.7775°W
Report Text: KCDA 221555Z AUTO 36004KT 10SM SCT016 SCT023 OVC028 11/06 A3020 RMK AO2 T01050064
Loading
Personal Weather Stations






























Interactive Weather Map
Tropical Storm Tracking
New forecast layout! Learn more

10-Day Weather Forecast

Advertisements
Track Severe Weather on mobile